sensor_id;sensor_type;location;lat;lon;timestamp;P1;durP1;ratioP1;P2;durP2;ratioP2
74523;SDS011;63074;44.696;10.358;2023-04-07T00:01:14;6.28;;;3.55;;
74523;SDS011;63074;44.696;10.358;2023-04-07T00:03:40;8.55;;;4.65;;
74523;SDS011;63074;44.696;10.358;2023-04-07T00:06:08;6.90;;;3.65;;
74523;SDS011;63074;44.696;10.358;2023-04-07T00:08:35;6.25;;;3.65;;
74523;SDS011;63074;44.696;10.358;2023-04-07T00:11:01;7.50;;;3.60;;
74523;SDS011;63074;44.696;10.358;2023-04-07T00:13:27;5.18;;;3.75;;
74523;SDS011;63074;44.696;10.358;2023-04-07T00:15:53;6.53;;;3.85;;
74523;SDS011;63074;44.696;10.358;2023-04-07T00:18:20;6.80;;;4.70;;
74523;SDS011;63074;44.696;10.358;2023-04-07T00:20:46;7.35;;;3.50;;
74523;SDS011;63074;44.696;10.358;2023-04-07T00:23:12;6.80;;;3.58;;
74523;SDS011;63074;44.696;10.358;2023-04-07T00:25:38;7.45;;;3.72;;
74523;SDS011;63074;44.696;10.358;2023-04-07T00:28:04;6.03;;;3.42;;
74523;SDS011;63074;44.696;10.358;2023-04-07T00:30:30;7.28;;;4.00;;
74523;SDS011;63074;44.696;10.358;2023-04-07T00:32:57;6.55;;;3.55;;
74523;SDS011;63074;44.696;10.358;2023-04-07T00:35:23;6.38;;;4.35;;
74523;SDS011;63074;44.696;10.358;2023-04-07T00:37:49;7.32;;;3.97;;
74523;SDS011;63074;44.696;10.358;2023-04-07T00:40:16;5.35;;;3.08;;
74523;SDS011;63074;44.696;10.358;2023-04-07T00:42:42;5.68;;;2.95;;
74523;SDS011;63074;44.696;10.358;2023-04-07T00:45:08;6.25;;;3.50;;
74523;SDS011;63074;44.696;10.358;2023-04-07T00:47:35;7.55;;;3.80;;
74523;SDS011;63074;44.696;10.358;2023-04-07T00:50:04;6.47;;;3.80;;
74523;SDS011;63074;44.696;10.358;2023-04-07T00:52:31;6.72;;;3.47;;
74523;SDS011;63074;44.696;10.358;2023-04-07T00:54:58;6.47;;;4.05;;
74523;SDS011;63074;44.696;10.358;2023-04-07T00:57:24;5.55;;;3.30;;
74523;SDS011;63074;44.696;10.358;2023-04-07T00:59:51;7.03;;;3.85;;
74523;SDS011;63074;44.696;10.358;2023-04-07T01:05:01;6.38;;;3.60;;
74523;SDS011;63074;44.696;10.358;2023-04-07T01:07:34;7.15;;;3.92;;
74523;SDS011;63074;44.696;10.358;2023-04-07T01:10:09;6.78;;;3.83;;
74523;SDS011;63074;44.696;10.358;2023-04-07T01:12:56;5.82;;;3.25;;
74523;SDS011;63074;44.696;10.358;2023-04-07T01:16:03;7.65;;;3.72;;
74523;SDS011;63074;44.696;10.358;2023-04-07T01:18:35;5.93;;;3.45;;
74523;SDS011;63074;44.696;10.358;2023-04-07T01:21:04;7.40;;;3.03;;
74523;SDS011;63074;44.696;10.358;2023-04-07T01:26:22;8.52;;;3.80;;
74523;SDS011;63074;44.696;10.358;2023-04-07T01:31:49;7.53;;;3.50;;
74523;SDS011;63074;44.696;10.358;2023-04-07T01:34:18;8.00;;;3.42;;
74523;SDS011;63074;44.696;10.358;2023-04-07T01:36:46;8.57;;;3.72;;
74523;SDS011;63074;44.696;10.358;2023-04-07T01:39:14;7.22;;;3.40;;
74523;SDS011;63074;44.696;10.358;2023-04-07T01:41:40;7.18;;;2.92;;
74523;SDS011;63074;44.696;10.358;2023-04-07T01:44:08;5.75;;;3.70;;
74523;SDS011;63074;44.696;10.358;2023-04-07T01:46:35;5.00;;;3.00;;
74523;SDS011;63074;44.696;10.358;2023-04-07T01:49:02;5.07;;;3.47;;
74523;SDS011;63074;44.696;10.358;2023-04-07T01:51:30;4.70;;;3.72;;
74523;SDS011;63074;44.696;10.358;2023-04-07T01:53:58;5.57;;;2.85;;
74523;SDS011;63074;44.696;10.358;2023-04-07T01:56:25;6.55;;;2.90;;
74523;SDS011;63074;44.696;10.358;2023-04-07T01:58:52;4.35;;;2.72;;
74523;SDS011;63074;44.696;10.358;2023-04-07T02:01:18;4.10;;;2.88;;
74523;SDS011;63074;44.696;10.358;2023-04-07T02:03:55;6.20;;;3.15;;
74523;SDS011;63074;44.696;10.358;2023-04-07T02:06:32;5.53;;;3.55;;
74523;SDS011;63074;44.696;10.358;2023-04-07T02:09:04;6.10;;;2.88;;
74523;SDS011;63074;44.696;10.358;2023-04-07T02:11:33;5.38;;;2.55;;
74523;SDS011;63074;44.696;10.358;2023-04-07T02:14:01;4.47;;;2.47;;
74523;SDS011;63074;44.696;10.358;2023-04-07T02:16:31;4.90;;;2.65;;
74523;SDS011;63074;44.696;10.358;2023-04-07T02:18:58;4.90;;;3.10;;
74523;SDS011;63074;44.696;10.358;2023-04-07T02:21:26;4.40;;;2.75;;
74523;SDS011;63074;44.696;10.358;2023-04-07T02:23:54;4.22;;;2.67;;
74523;SDS011;63074;44.696;10.358;2023-04-07T02:26:20;6.50;;;3.13;;
74523;SDS011;63074;44.696;10.358;2023-04-07T02:28:46;5.93;;;2.63;;
74523;SDS011;63074;44.696;10.358;2023-04-07T02:31:13;5.05;;;2.70;;
74523;SDS011;63074;44.696;10.358;2023-04-07T02:33:39;4.90;;;2.80;;
74523;SDS011;63074;44.696;10.358;2023-04-07T02:36:05;5.18;;;3.03;;
74523;SDS011;63074;44.696;10.358;2023-04-07T02:38:31;6.07;;;3.05;;
74523;SDS011;63074;44.696;10.358;2023-04-07T02:40:57;5.05;;;2.88;;
74523;SDS011;63074;44.696;10.358;2023-04-07T02:43:24;6.10;;;3.35;;
74523;SDS011;63074;44.696;10.358;2023-04-07T02:45:50;5.63;;;2.63;;
74523;SDS011;63074;44.696;10.358;2023-04-07T02:48:16;5.35;;;3.03;;
74523;SDS011;63074;44.696;10.358;2023-04-07T02:50:43;5.13;;;3.13;;
74523;SDS011;63074;44.696;10.358;2023-04-07T02:53:09;6.10;;;3.55;;
74523;SDS011;63074;44.696;10.358;2023-04-07T02:55:35;6.85;;;3.17;;
74523;SDS011;63074;44.696;10.358;2023-04-07T02:58:01;5.18;;;2.70;;
74523;SDS011;63074;44.696;10.358;2023-04-07T03:00:27;4.25;;;2.30;;
74523;SDS011;63074;44.696;10.358;2023-04-07T03:02:53;5.82;;;3.05;;
74523;SDS011;63074;44.696;10.358;2023-04-07T03:05:20;6.00;;;3.00;;
74523;SDS011;63074;44.696;10.358;2023-04-07T03:07:46;4.85;;;2.17;;
74523;SDS011;63074;44.696;10.358;2023-04-07T03:10:12;3.80;;;2.28;;
74523;SDS011;63074;44.696;10.358;2023-04-07T03:12:38;6.03;;;2.50;;
74523;SDS011;63074;44.696;10.358;2023-04-07T03:15:05;7.15;;;2.95;;
74523;SDS011;63074;44.696;10.358;2023-04-07T03:17:32;4.45;;;2.80;;
74523;SDS011;63074;44.696;10.358;2023-04-07T03:19:58;6.82;;;3.10;;
74523;SDS011;63074;44.696;10.358;2023-04-07T03:22:25;4.22;;;2.90;;
74523;SDS011;63074;44.696;10.358;2023-04-07T03:24:51;7.38;;;3.03;;
74523;SDS011;63074;44.696;10.358;2023-04-07T03:27:17;4.50;;;3.38;;
74523;SDS011;63074;44.696;10.358;2023-04-07T03:29:44;6.88;;;2.85;;
74523;SDS011;63074;44.696;10.358;2023-04-07T03:32:10;5.07;;;2.67;;
74523;SDS011;63074;44.696;10.358;2023-04-07T03:34:37;4.07;;;2.75;;
74523;SDS011;63074;44.696;10.358;2023-04-07T03:37:03;6.05;;;2.80;;
74523;SDS011;63074;44.696;10.358;2023-04-07T03:39:29;3.45;;;2.13;;
74523;SDS011;63074;44.696;10.358;2023-04-07T03:41:56;4.57;;;2.75;;
74523;SDS011;63074;44.696;10.358;2023-04-07T03:44:22;4.55;;;2.97;;
74523;SDS011;63074;44.696;10.358;2023-04-07T03:46:48;4.95;;;2.75;;
74523;SDS011;63074;44.696;10.358;2023-04-07T03:49:15;4.30;;;2.97;;
74523;SDS011;63074;44.696;10.358;2023-04-07T03:51:41;4.93;;;2.50;;
74523;SDS011;63074;44.696;10.358;2023-04-07T03:54:07;4.93;;;2.92;;
74523;SDS011;63074;44.696;10.358;2023-04-07T03:56:33;4.30;;;2.00;;
74523;SDS011;63074;44.696;10.358;2023-04-07T03:58:59;6.63;;;2.97;;
74523;SDS011;63074;44.696;10.358;2023-04-07T04:01:25;5.45;;;2.10;;
74523;SDS011;63074;44.696;10.358;2023-04-07T04:03:52;4.60;;;2.85;;
74523;SDS011;63074;44.696;10.358;2023-04-07T04:06:18;4.75;;;2.20;;
74523;SDS011;63074;44.696;10.358;2023-04-07T04:08:44;4.20;;;2.80;;
74523;SDS011;63074;44.696;10.358;2023-04-07T04:11:10;5.88;;;3.22;;
74523;SDS011;63074;44.696;10.358;2023-04-07T04:13:37;5.78;;;2.67;;
74523;SDS011;63074;44.696;10.358;2023-04-07T04:16:03;5.35;;;2.55;;
74523;SDS011;63074;44.696;10.358;2023-04-07T04:18:29;4.18;;;2.10;;
74523;SDS011;63074;44.696;10.358;2023-04-07T04:20:56;6.43;;;2.25;;
74523;SDS011;63074;44.696;10.358;2023-04-07T04:23:22;6.63;;;2.83;;
74523;SDS011;63074;44.696;10.358;2023-04-07T04:25:48;3.58;;;2.00;;
74523;SDS011;63074;44.696;10.358;2023-04-07T04:28:14;4.40;;;2.40;;
74523;SDS011;63074;44.696;10.358;2023-04-07T04:30:40;4.95;;;2.60;;
74523;SDS011;63074;44.696;10.358;2023-04-07T04:33:06;4.65;;;2.47;;
74523;SDS011;63074;44.696;10.358;2023-04-07T04:35:33;4.95;;;2.10;;
74523;SDS011;63074;44.696;10.358;2023-04-07T04:37:59;5.10;;;2.53;;
74523;SDS011;63074;44.696;10.358;2023-04-07T04:40:25;6.45;;;2.72;;
74523;SDS011;63074;44.696;10.358;2023-04-07T04:42:51;3.80;;;2.50;;
74523;SDS011;63074;44.696;10.358;2023-04-07T04:45:17;5.15;;;2.67;;
74523;SDS011;63074;44.696;10.358;2023-04-07T04:47:44;11.02;;;4.57;;
74523;SDS011;63074;44.696;10.358;2023-04-07T04:50:10;12.68;;;6.18;;
74523;SDS011;63074;44.696;10.358;2023-04-07T04:52:37;6.10;;;3.50;;
74523;SDS011;63074;44.696;10.358;2023-04-07T04:55:03;6.32;;;3.08;;
74523;SDS011;63074;44.696;10.358;2023-04-07T04:57:30;4.72;;;3.15;;
74523;SDS011;63074;44.696;10.358;2023-04-07T04:59:56;4.75;;;2.55;;
74523;SDS011;63074;44.696;10.358;2023-04-07T05:02:22;5.53;;;2.70;;
74523;SDS011;63074;44.696;10.358;2023-04-07T05:04:48;5.15;;;2.42;;
74523;SDS011;63074;44.696;10.358;2023-04-07T05:07:14;4.55;;;2.80;;
74523;SDS011;63074;44.696;10.358;2023-04-07T05:09:40;5.63;;;2.55;;
74523;SDS011;63074;44.696;10.358;2023-04-07T05:12:07;3.90;;;2.58;;
74523;SDS011;63074;44.696;10.358;2023-04-07T05:14:33;6.15;;;3.17;;
74523;SDS011;63074;44.696;10.358;2023-04-07T05:16:59;4.50;;;2.72;;
74523;SDS011;63074;44.696;10.358;2023-04-07T05:19:25;6.75;;;3.40;;
74523;SDS011;63074;44.696;10.358;2023-04-07T05:21:53;5.80;;;2.75;;
74523;SDS011;63074;44.696;10.358;2023-04-07T05:24:20;4.57;;;2.25;;
74523;SDS011;63074;44.696;10.358;2023-04-07T05:26:46;4.75;;;2.40;;
74523;SDS011;63074;44.696;10.358;2023-04-07T05:29:12;4.72;;;2.83;;
74523;SDS011;63074;44.696;10.358;2023-04-07T05:31:38;4.85;;;3.15;;
74523;SDS011;63074;44.696;10.358;2023-04-07T05:34:05;4.38;;;2.90;;
74523;SDS011;63074;44.696;10.358;2023-04-07T05:36:32;4.35;;;2.80;;
74523;SDS011;63074;44.696;10.358;2023-04-07T05:38:59;4.70;;;2.28;;
74523;SDS011;63074;44.696;10.358;2023-04-07T05:41:25;8.55;;;3.22;;
74523;SDS011;63074;44.696;10.358;2023-04-07T05:43:51;6.93;;;3.55;;
74523;SDS011;63074;44.696;10.358;2023-04-07T05:46:18;8.82;;;3.60;;
74523;SDS011;63074;44.696;10.358;2023-04-07T05:48:44;9.52;;;3.28;;
74523;SDS011;63074;44.696;10.358;2023-04-07T05:51:10;10.77;;;3.78;;
74523;SDS011;63074;44.696;10.358;2023-04-07T05:53:37;5.30;;;2.90;;
74523;SDS011;63074;44.696;10.358;2023-04-07T05:56:04;5.18;;;2.97;;
74523;SDS011;63074;44.696;10.358;2023-04-07T05:58:30;7.20;;;2.97;;
74523;SDS011;63074;44.696;10.358;2023-04-07T06:00:56;6.18;;;3.13;;
74523;SDS011;63074;44.696;10.358;2023-04-07T06:03:23;6.18;;;3.95;;
74523;SDS011;63074;44.696;10.358;2023-04-07T06:05:49;6.30;;;3.35;;
74523;SDS011;63074;44.696;10.358;2023-04-07T06:08:15;5.15;;;3.25;;
74523;SDS011;63074;44.696;10.358;2023-04-07T06:10:41;6.55;;;3.28;;
74523;SDS011;63074;44.696;10.358;2023-04-07T06:13:08;6.05;;;3.08;;
74523;SDS011;63074;44.696;10.358;2023-04-07T06:15:34;6.03;;;3.42;;
74523;SDS011;63074;44.696;10.358;2023-04-07T06:18:01;6.93;;;3.40;;
74523;SDS011;63074;44.696;10.358;2023-04-07T06:20:27;5.53;;;3.22;;
74523;SDS011;63074;44.696;10.358;2023-04-07T06:22:53;8.98;;;2.83;;
74523;SDS011;63074;44.696;10.358;2023-04-07T06:25:20;6.10;;;3.25;;
74523;SDS011;63074;44.696;10.358;2023-04-07T06:27:46;6.07;;;3.03;;
74523;SDS011;63074;44.696;10.358;2023-04-07T06:30:12;6.72;;;3.42;;
74523;SDS011;63074;44.696;10.358;2023-04-07T06:32:41;5.43;;;2.70;;
74523;SDS011;63074;44.696;10.358;2023-04-07T06:35:08;4.53;;;2.92;;
74523;SDS011;63074;44.696;10.358;2023-04-07T06:37:34;4.97;;;2.90;;
74523;SDS011;63074;44.696;10.358;2023-04-07T06:40:00;4.75;;;2.80;;
74523;SDS011;63074;44.696;10.358;2023-04-07T06:42:27;4.88;;;2.75;;
74523;SDS011;63074;44.696;10.358;2023-04-07T06:44:53;6.05;;;3.20;;
74523;SDS011;63074;44.696;10.358;2023-04-07T06:47:19;5.80;;;2.92;;
74523;SDS011;63074;44.696;10.358;2023-04-07T06:49:45;6.28;;;2.95;;
74523;SDS011;63074;44.696;10.358;2023-04-07T06:52:11;10.55;;;3.85;;
74523;SDS011;63074;44.696;10.358;2023-04-07T06:54:38;5.15;;;2.72;;
74523;SDS011;63074;44.696;10.358;2023-04-07T06:57:04;4.57;;;2.05;;
74523;SDS011;63074;44.696;10.358;2023-04-07T06:59:35;5.13;;;2.65;;
74523;SDS011;63074;44.696;10.358;2023-04-07T07:02:02;6.85;;;2.50;;
74523;SDS011;63074;44.696;10.358;2023-04-07T07:04:28;5.30;;;2.72;;
74523;SDS011;63074;44.696;10.358;2023-04-07T07:06:54;4.32;;;2.47;;
74523;SDS011;63074;44.696;10.358;2023-04-07T07:09:21;5.70;;;2.75;;
74523;SDS011;63074;44.696;10.358;2023-04-07T07:11:47;5.78;;;2.65;;
74523;SDS011;63074;44.696;10.358;2023-04-07T07:14:13;6.00;;;3.08;;
74523;SDS011;63074;44.696;10.358;2023-04-07T07:16:39;4.93;;;2.35;;
74523;SDS011;63074;44.696;10.358;2023-04-07T07:19:05;6.70;;;2.78;;
74523;SDS011;63074;44.696;10.358;2023-04-07T07:21:32;5.68;;;2.95;;
74523;SDS011;63074;44.696;10.358;2023-04-07T07:23:58;4.22;;;1.95;;
74523;SDS011;63074;44.696;10.358;2023-04-07T07:26:24;4.82;;;2.75;;
74523;SDS011;63074;44.696;10.358;2023-04-07T07:28:51;5.80;;;2.92;;
74523;SDS011;63074;44.696;10.358;2023-04-07T07:31:17;4.68;;;2.50;;
74523;SDS011;63074;44.696;10.358;2023-04-07T07:33:43;4.13;;;2.42;;
74523;SDS011;63074;44.696;10.358;2023-04-07T07:36:12;4.78;;;2.80;;
74523;SDS011;63074;44.696;10.358;2023-04-07T07:38:38;6.22;;;2.75;;
74523;SDS011;63074;44.696;10.358;2023-04-07T07:41:05;4.72;;;3.30;;
74523;SDS011;63074;44.696;10.358;2023-04-07T07:43:31;5.38;;;3.08;;
74523;SDS011;63074;44.696;10.358;2023-04-07T07:45:58;6.00;;;2.88;;
74523;SDS011;63074;44.696;10.358;2023-04-07T07:48:24;5.78;;;3.10;;
74523;SDS011;63074;44.696;10.358;2023-04-07T07:50:50;5.38;;;3.22;;
74523;SDS011;63074;44.696;10.358;2023-04-07T07:53:17;6.50;;;3.30;;
74523;SDS011;63074;44.696;10.358;2023-04-07T07:55:44;7.15;;;3.35;;
74523;SDS011;63074;44.696;10.358;2023-04-07T07:58:11;6.82;;;3.72;;
74523;SDS011;63074;44.696;10.358;2023-04-07T08:00:37;6.20;;;3.70;;
74523;SDS011;63074;44.696;10.358;2023-04-07T08:03:03;5.20;;;3.28;;
74523;SDS011;63074;44.696;10.358;2023-04-07T08:05:29;6.93;;;3.65;;
74523;SDS011;63074;44.696;10.358;2023-04-07T08:07:56;5.75;;;3.65;;
74523;SDS011;63074;44.696;10.358;2023-04-07T08:10:22;7.32;;;3.17;;
74523;SDS011;63074;44.696;10.358;2023-04-07T08:12:49;6.25;;;3.72;;
74523;SDS011;63074;44.696;10.358;2023-04-07T08:15:15;10.05;;;3.95;;
74523;SDS011;63074;44.696;10.358;2023-04-07T08:17:41;7.47;;;3.90;;
74523;SDS011;63074;44.696;10.358;2023-04-07T08:20:08;6.20;;;3.33;;
74523;SDS011;63074;44.696;10.358;2023-04-07T08:22:35;5.28;;;3.78;;
74523;SDS011;63074;44.696;10.358;2023-04-07T08:25:02;7.63;;;4.05;;
74523;SDS011;63074;44.696;10.358;2023-04-07T08:27:28;6.75;;;4.07;;
74523;SDS011;63074;44.696;10.358;2023-04-07T08:29:58;7.22;;;3.70;;
74523;SDS011;63074;44.696;10.358;2023-04-07T08:32:25;6.28;;;3.35;;
74523;SDS011;63074;44.696;10.358;2023-04-07T08:35:16;7.40;;;4.00;;
74523;SDS011;63074;44.696;10.358;2023-04-07T08:37:43;7.28;;;3.47;;
74523;SDS011;63074;44.696;10.358;2023-04-07T08:40:09;7.55;;;3.55;;
74523;SDS011;63074;44.696;10.358;2023-04-07T08:42:39;6.50;;;3.78;;
74523;SDS011;63074;44.696;10.358;2023-04-07T08:45:07;8.98;;;4.03;;
74523;SDS011;63074;44.696;10.358;2023-04-07T08:47:34;6.88;;;3.92;;
74523;SDS011;63074;44.696;10.358;2023-04-07T08:50:03;7.28;;;3.58;;
74523;SDS011;63074;44.696;10.358;2023-04-07T08:55:12;7.65;;;3.50;;
74523;SDS011;63074;44.696;10.358;2023-04-07T08:57:40;10.02;;;4.47;;
74523;SDS011;63074;44.696;10.358;2023-04-07T09:00:07;6.43;;;3.35;;
74523;SDS011;63074;44.696;10.358;2023-04-07T09:02:36;9.70;;;4.35;;
74523;SDS011;63074;44.696;10.358;2023-04-07T09:05:04;7.65;;;4.65;;
74523;SDS011;63074;44.696;10.358;2023-04-07T09:07:32;9.77;;;4.90;;
74523;SDS011;63074;44.696;10.358;2023-04-07T09:10:00;8.27;;;4.45;;
74523;SDS011;63074;44.696;10.358;2023-04-07T09:12:27;8.77;;;4.10;;
74523;SDS011;63074;44.696;10.358;2023-04-07T09:14:54;9.15;;;4.88;;
74523;SDS011;63074;44.696;10.358;2023-04-07T09:17:21;8.55;;;4.13;;
74523;SDS011;63074;44.696;10.358;2023-04-07T09:19:49;11.55;;;5.22;;
74523;SDS011;63074;44.696;10.358;2023-04-07T09:22:29;14.32;;;5.25;;
74523;SDS011;63074;44.696;10.358;2023-04-07T09:25:10;9.82;;;5.15;;
74523;SDS011;63074;44.696;10.358;2023-04-07T09:27:52;9.90;;;6.15;;
74523;SDS011;63074;44.696;10.358;2023-04-07T09:30:18;12.00;;;6.03;;
74523;SDS011;63074;44.696;10.358;2023-04-07T09:32:45;12.20;;;6.35;;
74523;SDS011;63074;44.696;10.358;2023-04-07T09:35:11;11.60;;;6.05;;
74523;SDS011;63074;44.696;10.358;2023-04-07T09:37:37;11.18;;;5.55;;
74523;SDS011;63074;44.696;10.358;2023-04-07T09:40:03;10.93;;;6.15;;
74523;SDS011;63074;44.696;10.358;2023-04-07T09:42:31;13.45;;;6.68;;
74523;SDS011;63074;44.696;10.358;2023-04-07T09:45:00;13.18;;;6.75;;
74523;SDS011;63074;44.696;10.358;2023-04-07T09:47:30;12.18;;;6.82;;
74523;SDS011;63074;44.696;10.358;2023-04-07T09:49:57;11.32;;;6.55;;
74523;SDS011;63074;44.696;10.358;2023-04-07T09:55:13;15.27;;;6.65;;
74523;SDS011;63074;44.696;10.358;2023-04-07T09:57:40;13.52;;;7.20;;
74523;SDS011;63074;44.696;10.358;2023-04-07T10:00:06;14.15;;;7.13;;
74523;SDS011;63074;44.696;10.358;2023-04-07T10:02:33;13.00;;;6.70;;
74523;SDS011;63074;44.696;10.358;2023-04-07T10:05:00;14.38;;;8.02;;
74523;SDS011;63074;44.696;10.358;2023-04-07T10:07:27;14.70;;;8.10;;
74523;SDS011;63074;44.696;10.358;2023-04-07T10:09:53;12.75;;;7.20;;
74523;SDS011;63074;44.696;10.358;2023-04-07T10:12:19;15.32;;;7.75;;
74523;SDS011;63074;44.696;10.358;2023-04-07T10:14:46;15.63;;;7.85;;
74523;SDS011;63074;44.696;10.358;2023-04-07T10:17:13;14.60;;;7.40;;
74523;SDS011;63074;44.696;10.358;2023-04-07T10:19:43;16.27;;;7.07;;
74523;SDS011;63074;44.696;10.358;2023-04-07T10:22:11;12.18;;;6.85;;
74523;SDS011;63074;44.696;10.358;2023-04-07T10:24:53;14.63;;;8.18;;
74523;SDS011;63074;44.696;10.358;2023-04-07T10:27:41;13.38;;;7.28;;
74523;SDS011;63074;44.696;10.358;2023-04-07T10:30:22;14.30;;;7.57;;
74523;SDS011;63074;44.696;10.358;2023-04-07T10:32:50;14.65;;;7.38;;
74523;SDS011;63074;44.696;10.358;2023-04-07T10:35:18;14.55;;;7.72;;
74523;SDS011;63074;44.696;10.358;2023-04-07T10:40:30;14.02;;;7.60;;
74523;SDS011;63074;44.696;10.358;2023-04-07T10:42:57;15.88;;;8.38;;
74523;SDS011;63074;44.696;10.358;2023-04-07T10:48:19;15.90;;;8.73;;
74523;SDS011;63074;44.696;10.358;2023-04-07T10:51:29;14.00;;;8.75;;
74523;SDS011;63074;44.696;10.358;2023-04-07T10:54:01;20.20;;;9.32;;
74523;SDS011;63074;44.696;10.358;2023-04-07T10:59:37;16.15;;;8.88;;
74523;SDS011;63074;44.696;10.358;2023-04-07T11:04:52;15.32;;;8.32;;
74523;SDS011;63074;44.696;10.358;2023-04-07T11:07:18;17.95;;;9.05;;
74523;SDS011;63074;44.696;10.358;2023-04-07T11:10:10;15.68;;;8.25;;
74523;SDS011;63074;44.696;10.358;2023-04-07T11:12:39;16.08;;;7.85;;
74523;SDS011;63074;44.696;10.358;2023-04-07T11:15:15;14.63;;;8.45;;
74523;SDS011;63074;44.696;10.358;2023-04-07T11:20:51;13.80;;;8.95;;
74523;SDS011;63074;44.696;10.358;2023-04-07T11:23:22;18.92;;;9.02;;
74523;SDS011;63074;44.696;10.358;2023-04-07T11:25:58;18.92;;;9.98;;
74523;SDS011;63074;44.696;10.358;2023-04-07T11:28:26;14.40;;;7.82;;
74523;SDS011;63074;44.696;10.358;2023-04-07T11:30:53;15.88;;;8.95;;
74523;SDS011;63074;44.696;10.358;2023-04-07T11:33:21;17.25;;;8.75;;
74523;SDS011;63074;44.696;10.358;2023-04-07T11:35:55;17.23;;;9.50;;
74523;SDS011;63074;44.696;10.358;2023-04-07T11:38:26;18.00;;;9.70;;
74523;SDS011;63074;44.696;10.358;2023-04-07T11:40:54;16.40;;;9.10;;
74523;SDS011;63074;44.696;10.358;2023-04-07T11:43:22;17.95;;;10.73;;
74523;SDS011;63074;44.696;10.358;2023-04-07T11:46:03;19.20;;;10.07;;
74523;SDS011;63074;44.696;10.358;2023-04-07T11:48:30;17.42;;;9.80;;
74523;SDS011;63074;44.696;10.358;2023-04-07T11:50:57;17.63;;;9.50;;
74523;SDS011;63074;44.696;10.358;2023-04-07T11:53:28;18.27;;;9.45;;
74523;SDS011;63074;44.696;10.358;2023-04-07T11:56:09;18.23;;;9.68;;
74523;SDS011;63074;44.696;10.358;2023-04-07T12:01:13;19.27;;;11.50;;
74523;SDS011;63074;44.696;10.358;2023-04-07T12:03:53;18.65;;;10.10;;
74523;SDS011;63074;44.696;10.358;2023-04-07T12:08:55;19.95;;;11.82;;
74523;SDS011;63074;44.696;10.358;2023-04-07T12:11:21;21.13;;;11.05;;
74523;SDS011;63074;44.696;10.358;2023-04-07T12:13:49;18.00;;;10.00;;
74523;SDS011;63074;44.696;10.358;2023-04-07T12:16:16;19.65;;;10.98;;
74523;SDS011;63074;44.696;10.358;2023-04-07T12:18:43;20.05;;;11.85;;
74523;SDS011;63074;44.696;10.358;2023-04-07T12:21:10;19.65;;;10.82;;
74523;SDS011;63074;44.696;10.358;2023-04-07T12:23:36;18.63;;;10.13;;
74523;SDS011;63074;44.696;10.358;2023-04-07T12:26:02;20.17;;;12.50;;
74523;SDS011;63074;44.696;10.358;2023-04-07T12:28:29;23.45;;;10.18;;
74523;SDS011;63074;44.696;10.358;2023-04-07T12:30:55;17.42;;;9.95;;
74523;SDS011;63074;44.696;10.358;2023-04-07T12:33:21;19.98;;;10.18;;
74523;SDS011;63074;44.696;10.358;2023-04-07T12:35:48;19.58;;;11.80;;
74523;SDS011;63074;44.696;10.358;2023-04-07T12:38:14;19.25;;;10.55;;
74523;SDS011;63074;44.696;10.358;2023-04-07T12:40:40;18.90;;;10.75;;
74523;SDS011;63074;44.696;10.358;2023-04-07T12:43:07;18.45;;;10.32;;
74523;SDS011;63074;44.696;10.358;2023-04-07T12:45:33;18.02;;;9.88;;
74523;SDS011;63074;44.696;10.358;2023-04-07T12:47:59;19.58;;;10.40;;
74523;SDS011;63074;44.696;10.358;2023-04-07T12:50:26;18.33;;;9.57;;
74523;SDS011;63074;44.696;10.358;2023-04-07T12:52:53;19.48;;;10.00;;
74523;SDS011;63074;44.696;10.358;2023-04-07T12:55:19;19.42;;;9.88;;
74523;SDS011;63074;44.696;10.358;2023-04-07T12:57:46;15.15;;;9.10;;
74523;SDS011;63074;44.696;10.358;2023-04-07T13:00:12;18.02;;;10.13;;
74523;SDS011;63074;44.696;10.358;2023-04-07T13:02:42;16.98;;;9.52;;
74523;SDS011;63074;44.696;10.358;2023-04-07T13:05:08;15.77;;;8.65;;
74523;SDS011;63074;44.696;10.358;2023-04-07T13:07:35;26.58;;;10.45;;
74523;SDS011;63074;44.696;10.358;2023-04-07T13:10:02;18.65;;;9.48;;
74523;SDS011;63074;44.696;10.358;2023-04-07T13:12:30;16.13;;;9.05;;
74523;SDS011;63074;44.696;10.358;2023-04-07T13:14:56;18.30;;;9.27;;
74523;SDS011;63074;44.696;10.358;2023-04-07T13:17:22;15.43;;;9.60;;
74523;SDS011;63074;44.696;10.358;2023-04-07T13:19:48;17.30;;;8.55;;
74523;SDS011;63074;44.696;10.358;2023-04-07T13:22:15;16.00;;;9.98;;
74523;SDS011;63074;44.696;10.358;2023-04-07T13:24:42;17.48;;;9.35;;
74523;SDS011;63074;44.696;10.358;2023-04-07T13:27:08;16.02;;;9.07;;
74523;SDS011;63074;44.696;10.358;2023-04-07T13:29:34;16.30;;;8.88;;
74523;SDS011;63074;44.696;10.358;2023-04-07T13:32:08;14.25;;;7.88;;
74523;SDS011;63074;44.696;10.358;2023-04-07T13:34:37;14.93;;;9.07;;
74523;SDS011;63074;44.696;10.358;2023-04-07T13:37:04;16.10;;;8.60;;
74523;SDS011;63074;44.696;10.358;2023-04-07T13:39:33;17.10;;;8.98;;
74523;SDS011;63074;44.696;10.358;2023-04-07T13:42:00;15.50;;;8.98;;
74523;SDS011;63074;44.696;10.358;2023-04-07T13:44:26;15.52;;;7.18;;
74523;SDS011;63074;44.696;10.358;2023-04-07T13:46:55;13.52;;;7.25;;
74523;SDS011;63074;44.696;10.358;2023-04-07T13:49:22;13.95;;;6.80;;
74523;SDS011;63074;44.696;10.358;2023-04-07T13:51:49;14.23;;;7.78;;
74523;SDS011;63074;44.696;10.358;2023-04-07T13:54:15;14.18;;;8.25;;
74523;SDS011;63074;44.696;10.358;2023-04-07T13:56:42;16.55;;;8.85;;
74523;SDS011;63074;44.696;10.358;2023-04-07T13:59:08;14.52;;;7.68;;
74523;SDS011;63074;44.696;10.358;2023-04-07T14:01:35;13.82;;;7.88;;
74523;SDS011;63074;44.696;10.358;2023-04-07T14:04:03;15.63;;;8.93;;
74523;SDS011;63074;44.696;10.358;2023-04-07T14:06:29;16.80;;;8.68;;
74523;SDS011;63074;44.696;10.358;2023-04-07T14:08:56;15.05;;;7.82;;
74523;SDS011;63074;44.696;10.358;2023-04-07T14:11:22;16.67;;;9.07;;
74523;SDS011;63074;44.696;10.358;2023-04-07T14:13:49;13.65;;;8.15;;
74523;SDS011;63074;44.696;10.358;2023-04-07T14:16:16;13.23;;;7.50;;
74523;SDS011;63074;44.696;10.358;2023-04-07T14:18:43;16.38;;;8.73;;
74523;SDS011;63074;44.696;10.358;2023-04-07T14:21:10;13.23;;;7.75;;
74523;SDS011;63074;44.696;10.358;2023-04-07T14:23:36;12.55;;;7.05;;
74523;SDS011;63074;44.696;10.358;2023-04-07T14:26:03;13.90;;;8.38;;
74523;SDS011;63074;44.696;10.358;2023-04-07T14:28:29;14.50;;;9.48;;
74523;SDS011;63074;44.696;10.358;2023-04-07T14:30:55;13.70;;;8.25;;
74523;SDS011;63074;44.696;10.358;2023-04-07T14:33:21;14.50;;;8.02;;
74523;SDS011;63074;44.696;10.358;2023-04-07T14:35:48;16.73;;;9.82;;
74523;SDS011;63074;44.696;10.358;2023-04-07T14:38:15;14.32;;;8.40;;
74523;SDS011;63074;44.696;10.358;2023-04-07T14:40:41;17.50;;;8.55;;
74523;SDS011;63074;44.696;10.358;2023-04-07T14:43:09;15.80;;;9.38;;
74523;SDS011;63074;44.696;10.358;2023-04-07T14:45:36;15.98;;;9.48;;
74523;SDS011;63074;44.696;10.358;2023-04-07T14:48:02;18.23;;;9.35;;
74523;SDS011;63074;44.696;10.358;2023-04-07T14:50:30;18.40;;;10.02;;
74523;SDS011;63074;44.696;10.358;2023-04-07T14:52:58;18.15;;;10.55;;
74523;SDS011;63074;44.696;10.358;2023-04-07T14:55:24;20.38;;;12.05;;
74523;SDS011;63074;44.696;10.358;2023-04-07T14:57:50;20.13;;;10.80;;
74523;SDS011;63074;44.696;10.358;2023-04-07T15:00:17;18.42;;;11.27;;
74523;SDS011;63074;44.696;10.358;2023-04-07T15:02:43;14.70;;;8.55;;
74523;SDS011;63074;44.696;10.358;2023-04-07T15:05:09;17.52;;;11.13;;